createdAt,value
2022-08-31T00:01:57.324Z,15.2
2022-08-31T00:04:01.121Z,15.2
2022-08-31T00:06:04.945Z,15.2
2022-08-31T00:08:08.813Z,15.2
2022-08-31T00:10:15.937Z,15.1
2022-08-31T00:12:19.805Z,15.1
2022-08-31T00:14:23.660Z,15.1
2022-08-31T00:16:27.608Z,15.1
2022-08-31T00:18:31.350Z,15.1
2022-08-31T00:20:35.219Z,15
2022-08-31T00:22:39.062Z,15
2022-08-31T00:24:46.151Z,15
2022-08-31T00:26:50.020Z,15
2022-08-31T00:28:53.907Z,14.9
2022-08-31T00:29:57.440Z,14.9
2022-08-31T00:32:01.380Z,14.9
2022-08-31T00:34:05.147Z,14.8
2022-08-31T00:36:09.020Z,14.8
2022-08-31T00:38:17.766Z,14.8
2022-08-31T00:42:25.447Z,14.7
2022-08-31T00:44:29.248Z,14.7
2022-08-31T00:48:37.001Z,14.6
2022-08-31T00:50:40.842Z,14.6
2022-08-31T00:52:47.988Z,14.6
2022-08-31T00:54:51.845Z,14.6
2022-08-31T00:56:55.674Z,14.6
2022-08-31T00:58:59.561Z,14.5
2022-08-31T01:01:03.456Z,14.5
2022-08-31T01:03:07.357Z,14.5
2022-08-31T01:05:11.110Z,14.5
2022-08-31T01:07:18.249Z,14.4
2022-08-31T01:09:22.072Z,14.4
2022-08-31T01:11:25.930Z,14.4
2022-08-31T01:13:29.793Z,14.4
2022-08-31T01:15:33.652Z,14.3
2022-08-31T01:19:41.385Z,14.2
2022-08-31T01:21:48.500Z,14.2
2022-08-31T01:23:52.574Z,14.2
2022-08-31T01:25:56.232Z,14.2
2022-08-31T01:26:59.837Z,14.1
2022-08-31T01:29:03.691Z,14.1
2022-08-31T01:31:07.613Z,14.1
2022-08-31T01:33:11.478Z,14.1
2022-08-31T01:35:18.574Z,14.1
2022-08-31T01:37:25.303Z,14
2022-08-31T01:39:26.292Z,14
2022-08-31T01:41:30.143Z,14
2022-08-31T01:43:34.040Z,14
2022-08-31T01:45:37.884Z,14
2022-08-31T01:47:41.771Z,14
2022-08-31T01:49:48.931Z,13.9
2022-08-31T01:51:52.767Z,13.9
2022-08-31T01:53:56.632Z,13.9
2022-08-31T01:56:00.511Z,13.8
2022-08-31T01:58:04.372Z,13.8
2022-08-31T02:00:08.235Z,13.8
2022-08-31T02:02:12.105Z,13.8
2022-08-31T02:04:19.220Z,13.8
2022-08-31T02:06:23.121Z,13.7
2022-08-31T02:08:26.968Z,13.7
2022-08-31T02:10:30.855Z,13.7
2022-08-31T02:12:34.752Z,13.7
2022-08-31T02:14:38.609Z,13.7
2022-08-31T02:16:42.600Z,13.7
2022-08-31T02:18:49.603Z,13.7
2022-08-31T02:20:53.471Z,13.6
2022-08-31T02:22:57.434Z,13.6
2022-08-31T02:25:22.369Z,13.6
2022-08-31T02:27:26.250Z,13.6
2022-08-31T02:29:30.131Z,13.6
2022-08-31T02:31:37.349Z,13.5
2022-08-31T02:33:41.149Z,13.5
2022-08-31T02:35:45.027Z,13.5
2022-08-31T02:37:48.895Z,13.5
2022-08-31T02:39:52.753Z,13.5
2022-08-31T02:41:56.637Z,13.5
2022-08-31T02:44:00.510Z,13.4
2022-08-31T02:46:07.734Z,13.4
2022-08-31T02:48:11.517Z,13.4
2022-08-31T02:50:15.407Z,13.4
2022-08-31T02:52:19.279Z,13.4
2022-08-31T02:54:23.142Z,13.4
2022-08-31T02:56:27.026Z,13.4
2022-08-31T02:58:30.885Z,13.4
2022-08-31T03:00:38.029Z,13.4
2022-08-31T03:02:41.957Z,13.3
2022-08-31T03:04:46.106Z,13.3
2022-08-31T03:06:49.629Z,13.3
2022-08-31T03:08:53.513Z,13.3
2022-08-31T03:10:57.372Z,13.3
2022-08-31T03:13:01.285Z,13.2
2022-08-31T03:15:08.457Z,13.2
2022-08-31T03:17:12.284Z,13.2
2022-08-31T03:22:23.576Z,13.1
2022-08-31T03:26:31.329Z,13.1
2022-08-31T03:30:42.387Z,13
2022-08-31T03:41:01.744Z,13
2022-08-31T03:43:08.868Z,13
2022-08-31T03:45:12.903Z,12.9
2022-08-31T03:47:16.600Z,12.9
2022-08-31T03:51:24.346Z,12.8
2022-08-31T03:53:28.216Z,12.8
2022-08-31T03:55:32.095Z,12.8
2022-08-31T03:57:39.305Z,12.8
2022-08-31T03:59:43.121Z,12.7
2022-08-31T04:01:47.070Z,12.7
2022-08-31T04:03:50.876Z,12.7
2022-08-31T04:05:54.725Z,12.7
2022-08-31T04:07:58.594Z,12.7
2022-08-31T04:10:02.497Z,12.7
2022-08-31T04:12:09.606Z,12.7
2022-08-31T04:14:15.470Z,12.7
2022-08-31T04:16:17.405Z,12.7
2022-08-31T04:17:20.904Z,12.7
2022-08-31T04:19:24.782Z,12.7
2022-08-31T04:21:28.699Z,12.7
2022-08-31T04:23:32.567Z,12.7
2022-08-31T04:25:39.705Z,12.7
2022-08-31T04:27:43.602Z,12.6
2022-08-31T04:29:47.471Z,12.6
2022-08-31T04:31:51.317Z,12.6
2022-08-31T04:33:55.169Z,12.6
2022-08-31T04:35:59.071Z,12.6
2022-08-31T04:38:02.928Z,12.6
2022-08-31T04:40:10.158Z,12.6
2022-08-31T04:42:13.926Z,12.6
2022-08-31T04:44:19.991Z,12.6
2022-08-31T04:46:21.720Z,12.5
2022-08-31T04:48:25.501Z,12.6
2022-08-31T04:50:29.382Z,12.5
2022-08-31T04:52:33.262Z,12.5
2022-08-31T04:54:40.396Z,12.5
2022-08-31T04:56:44.276Z,12.5
2022-08-31T04:58:48.133Z,12.5
2022-08-31T05:00:51.991Z,12.5
2022-08-31T05:02:55.967Z,12.5
2022-08-31T05:04:59.747Z,12.5
2022-08-31T05:07:03.616Z,12.5
2022-08-31T05:09:10.795Z,12.6
2022-08-31T05:11:14.649Z,12.5
2022-08-31T05:13:18.710Z,12.6
2022-08-31T05:14:22.238Z,12.6
2022-08-31T05:16:26.000Z,12.6
2022-08-31T05:18:29.815Z,12.6
2022-08-31T05:22:40.824Z,12.6
2022-08-31T05:24:44.668Z,12.6
2022-08-31T05:26:48.586Z,12.6
2022-08-31T05:28:52.488Z,12.7
2022-08-31T05:30:56.368Z,12.7
2022-08-31T05:33:04.391Z,12.7
2022-08-31T05:35:04.055Z,12.7
2022-08-31T18:42:17.327Z,19.9
2022-08-31T18:44:21.154Z,19.8
2022-08-31T18:46:25.030Z,19.8
2022-08-31T18:48:49.434Z,19.6
2022-08-31T18:50:53.229Z,19.6
2022-08-31T18:52:57.042Z,19.6
2022-08-31T18:55:04.200Z,19.5
2022-08-31T18:57:07.935Z,19.4
2022-08-31T18:59:11.708Z,19.4
2022-08-31T19:01:15.726Z,19.4
2022-08-31T19:03:19.629Z,19.3
2022-08-31T19:07:26.989Z,19.2
2022-08-31T19:09:36.650Z,19.1
2022-08-31T19:11:37.856Z,19
2022-08-31T19:13:41.673Z,19
2022-08-31T19:17:49.358Z,18.9
2022-08-31T19:21:58.061Z,18.7
2022-08-31T19:24:05.155Z,18.6
2022-08-31T19:26:07.893Z,18.6
2022-08-31T19:28:11.656Z,18.5
2022-08-31T19:30:15.461Z,18.4
2022-08-31T19:32:19.274Z,18.3
2022-08-31T19:34:23.120Z,18.3
2022-08-31T19:36:27.381Z,18.2
2022-08-31T19:38:34.028Z,18.2
2022-08-31T19:40:37.894Z,18.1
2022-08-31T19:42:59.549Z,18.1
2022-08-31T19:43:52.304Z,18.1
2022-08-31T19:45:49.054Z,18.1
2022-08-31T19:47:52.873Z,18
2022-08-31T19:49:56.700Z,18
2022-08-31T19:52:03.895Z,17.9
2022-08-31T19:54:07.662Z,17.9
2022-08-31T19:58:15.315Z,17.8
2022-08-31T20:00:19.244Z,17.8
2022-08-31T20:04:26.803Z,17.7
2022-08-31T20:08:37.796Z,17.7
2022-08-31T20:14:49.291Z,17.7
2022-08-31T20:16:53.124Z,17.7
2022-08-31T20:18:56.968Z,17.6
2022-08-31T20:23:07.926Z,17.6
2022-08-31T20:29:19.446Z,17.4
2022-08-31T20:31:23.310Z,17.4
2022-08-31T20:33:27.126Z,17.3
2022-08-31T20:35:34.260Z,17.2
2022-08-31T20:37:38.067Z,17.2
2022-08-31T20:39:41.991Z,17.2
2022-08-31T20:40:45.557Z,17.1
2022-08-31T20:42:49.330Z,17.1
2022-08-31T20:44:53.168Z,17.1
2022-08-31T20:46:57.020Z,17
2022-08-31T20:49:04.173Z,16.9
2022-08-31T20:51:08.012Z,16.9
2022-08-31T20:53:11.822Z,16.8
2022-08-31T20:55:15.689Z,16.8
2022-08-31T20:57:19.526Z,16.8
2022-08-31T20:59:23.383Z,16.7
2022-08-31T21:01:27.277Z,16.6
2022-08-31T21:03:34.408Z,16.6
2022-08-31T21:05:38.951Z,16.5
2022-08-31T21:07:42.113Z,16.5
2022-08-31T21:15:57.532Z,16.4
2022-08-31T21:20:08.518Z,16.4
2022-08-31T21:22:12.529Z,16.4
2022-08-31T21:26:20.020Z,16.3
2022-08-31T21:28:23.868Z,16.2
2022-08-31T21:30:27.766Z,16.2
2022-08-31T21:34:38.770Z,16.1
2022-08-31T21:39:51.686Z,16
2022-08-31T21:43:57.689Z,16
2022-08-31T21:48:08.698Z,15.9
2022-08-31T21:50:12.547Z,15.8
2022-08-31T21:52:16.415Z,15.8
2022-08-31T21:58:28.009Z,15.7
2022-08-31T22:02:39.078Z,15.6
2022-08-31T22:04:42.845Z,15.6
2022-08-31T22:06:46.727Z,15.5
2022-08-31T22:08:50.581Z,15.5
2022-08-31T22:12:58.309Z,15.4
2022-08-31T22:17:09.308Z,15.3
2022-08-31T22:21:17.029Z,15.3
2022-08-31T22:27:28.581Z,15.2
2022-08-31T22:31:39.664Z,15.2
2022-08-31T22:33:47.377Z,15.2
2022-08-31T22:36:01.978Z,15.1
2022-08-31T22:40:09.829Z,15.1
2022-08-31T22:42:16.828Z,15
2022-08-31T22:44:20.679Z,15
2022-08-31T22:48:28.417Z,14.9
2022-08-31T22:50:32.342Z,14.8
2022-08-31T22:56:47.132Z,14.7
2022-08-31T22:58:51.011Z,14.6
2022-08-31T23:02:58.719Z,14.6
2022-08-31T23:05:02.569Z,14.5
2022-08-31T23:07:06.580Z,14.5
2022-08-31T23:09:10.285Z,14.5
2022-08-31T23:11:17.433Z,14.5
2022-08-31T23:13:21.271Z,14.5
2022-08-31T23:15:25.137Z,14.4
2022-08-31T23:17:28.996Z,14.4
2022-08-31T23:19:32.987Z,14.4
2022-08-31T23:21:36.732Z,14.3
2022-08-31T23:23:40.617Z,14.3
2022-08-31T23:25:47.765Z,14.2
2022-08-31T23:27:51.613Z,14.2
2022-08-31T23:29:55.476Z,14.2
2022-08-31T23:30:59.088Z,14.1
2022-08-31T23:35:06.801Z,14.1
2022-08-31T23:37:10.683Z,14
2022-08-31T23:39:17.834Z,14
2022-08-31T23:43:25.570Z,13.9
2022-08-31T23:45:29.443Z,13.9
2022-08-31T23:53:48.224Z,13.7
2022-08-31T23:55:52.076Z,13.7
